createdAt,value
2022-08-01T00:00:41.868Z,77.87
2022-08-01T00:01:41.873Z,78.17
2022-08-01T00:02:41.920Z,78.27
2022-08-01T00:03:41.846Z,78.47
2022-08-01T00:04:41.910Z,78.27
2022-08-01T00:05:41.809Z,78.47
2022-08-01T00:06:41.798Z,78.47
2022-08-01T00:07:41.798Z,78.34
2022-08-01T00:08:41.761Z,78.44
2022-08-01T00:09:41.751Z,78.23
2022-08-01T00:10:41.759Z,78.38
2022-08-01T00:11:41.738Z,78.58
2022-08-01T00:12:41.712Z,78.67
2022-08-01T00:13:41.703Z,78.78
2022-08-01T00:14:41.713Z,78.78
2022-08-01T00:15:41.679Z,78.88
2022-08-01T00:16:41.724Z,78.98
2022-08-01T00:17:41.651Z,78.88
2022-08-01T00:18:41.621Z,78.98
2022-08-01T00:19:41.636Z,79.08
2022-08-01T00:20:41.598Z,78.67
2022-08-01T00:21:41.594Z,78.67
2022-08-01T00:22:41.874Z,78.98
2022-08-01T00:23:41.569Z,78.98
2022-08-01T00:24:41.568Z,79.28
2022-08-01T00:25:41.569Z,79.38
2022-08-01T00:26:41.545Z,79.42
2022-08-01T00:27:41.532Z,79.72
2022-08-01T00:28:41.529Z,79.82
2022-08-01T00:30:11.030Z,80.02
2022-08-01T00:30:41.482Z,80.12
2022-08-01T00:31:41.468Z,80.12
2022-08-01T00:32:41.467Z,80.36
2022-08-01T00:33:41.443Z,80.77
2022-08-01T00:34:41.466Z,80.87
2022-08-01T00:35:41.427Z,80.87
2022-08-01T00:36:41.405Z,80.63
2022-08-01T00:37:41.396Z,80.32
2022-08-01T00:38:41.365Z,80.12
2022-08-01T00:39:41.379Z,80.02
2022-08-01T00:40:41.398Z,80.12
2022-08-01T00:41:41.334Z,80.22
2022-08-01T00:42:43.691Z,80.12
2022-08-01T00:43:41.308Z,80.22
2022-08-01T00:44:41.268Z,80.22
2022-08-01T00:45:41.285Z,80.32
2022-08-01T00:46:41.330Z,80.43
2022-08-01T00:47:41.307Z,80.22
2022-08-01T00:48:41.228Z,80.43
2022-08-01T00:49:41.302Z,80.83
2022-08-01T00:50:41.222Z,80.63
2022-08-01T00:51:41.195Z,80.93
2022-08-01T00:52:41.254Z,80.93
2022-08-01T00:53:51.948Z,80.97
2022-08-01T00:54:41.181Z,81.03
2022-08-01T00:55:41.156Z,80.93
2022-08-01T00:56:41.123Z,80.93
2022-08-01T00:58:03.109Z,81.07
2022-08-01T00:58:41.137Z,81.27
2022-08-01T00:59:41.399Z,81.57
2022-08-01T01:00:52.396Z,81.67
2022-08-01T01:01:41.128Z,81.57
2022-08-01T01:02:41.087Z,81.77
2022-08-01T01:03:58.478Z,81.98
2022-08-01T01:04:41.066Z,81.37
2022-08-01T01:05:41.021Z,81.47
2022-08-01T01:06:40.982Z,81.47
2022-08-01T01:07:49.612Z,81.77
2022-08-01T01:08:40.973Z,81.37
2022-08-01T01:09:40.949Z,82.21
2022-08-01T01:10:40.993Z,82.82
2022-08-01T01:11:40.956Z,82.51
2022-08-01T01:12:41.872Z,82.51
2022-08-01T01:13:49.591Z,82.82
2022-08-01T01:14:40.909Z,82.42
2022-08-01T01:15:40.886Z,82.82
2022-08-01T01:16:40.919Z,83.12
2022-08-01T01:17:51.513Z,83.42
2022-08-01T01:19:31.878Z,83.87
2022-08-01T01:20:32.870Z,83.87
2022-08-01T01:21:32.861Z,83.56
2022-08-01T01:22:32.865Z,83.66
2022-08-01T01:23:32.832Z,83.87
2022-08-01T01:24:32.802Z,84.37
2022-08-01T01:25:32.816Z,84.47
2022-08-01T01:26:32.783Z,83.87
2022-08-01T01:27:32.817Z,84.47
2022-08-01T01:28:32.795Z,84.17
2022-08-01T01:30:00.478Z,84.07
2022-08-01T01:30:32.751Z,84.17
2022-08-01T01:31:32.730Z,84.07
2022-08-01T01:32:32.701Z,84.77
2022-08-01T01:33:32.709Z,84.57
2022-08-01T01:34:32.703Z,84.77
2022-08-01T01:35:32.685Z,84.77
2022-08-01T01:36:32.643Z,84.77
2022-08-01T01:37:32.651Z,84.97
2022-08-01T01:38:32.624Z,84.97
2022-08-01T01:39:32.633Z,84.97
2022-08-01T01:40:32.618Z,85.17
2022-08-01T01:41:32.602Z,85.28
2022-08-01T01:42:32.577Z,84.77
2022-08-01T01:43:33.766Z,84.77
2022-08-01T01:44:32.564Z,84.47
2022-08-01T01:45:32.559Z,84.37
2022-08-01T01:46:32.591Z,84.57
2022-08-01T01:47:32.527Z,84.47
2022-08-01T01:48:32.489Z,84.37
2022-08-01T01:49:32.561Z,84.27
2022-08-01T01:50:32.493Z,84.27
2022-08-01T01:51:32.456Z,84.37
2022-08-01T01:52:32.510Z,84.47
2022-08-01T01:53:32.452Z,84.67
2022-08-01T01:54:32.489Z,84.77
2022-08-01T01:55:32.411Z,84.88
2022-08-01T01:56:32.377Z,84.88
2022-08-01T01:57:32.397Z,85.08
2022-08-01T01:58:32.424Z,85.17
2022-08-01T01:59:32.352Z,85.08
2022-08-01T02:00:32.337Z,85.17
2022-08-01T02:01:58.703Z,85.17
2022-08-01T02:02:32.366Z,85.48
2022-08-01T02:03:32.310Z,85.58
2022-08-01T02:04:32.326Z,85.58
2022-08-01T02:05:32.269Z,85.48
2022-08-01T02:06:32.244Z,85.17
2022-08-01T02:07:32.274Z,85.08
2022-08-01T02:08:32.254Z,84.97
2022-08-01T02:09:32.245Z,85.08
2022-08-01T02:10:32.245Z,85.08
2022-08-01T02:11:32.190Z,85.08
2022-08-01T02:12:32.173Z,85.08
2022-08-01T02:13:32.182Z,85.28
2022-08-01T02:14:32.147Z,85.42
2022-08-01T02:15:32.159Z,85.52
2022-08-01T02:16:32.170Z,85.82
2022-08-01T02:17:32.113Z,85.92
2022-08-01T02:18:32.088Z,86.02
2022-08-01T02:19:32.090Z,86.13
2022-08-01T02:20:32.073Z,86.43
2022-08-01T02:21:32.093Z,86.73
2022-08-01T02:22:32.068Z,86.83
2022-08-01T02:23:32.033Z,86.83
2022-08-01T02:24:32.021Z,86.83
2022-08-01T02:25:32.028Z,86.83
2022-08-01T02:26:31.984Z,86.53
2022-08-01T02:27:31.982Z,86.73
2022-08-01T02:28:31.988Z,86.83
2022-08-01T02:29:31.977Z,86.73
2022-08-01T02:30:31.959Z,86.83
2022-08-01T02:31:31.922Z,86.83
2022-08-01T02:32:31.912Z,86.97
2022-08-01T02:33:31.903Z,87.27
2022-08-01T02:34:31.941Z,87.34
2022-08-01T02:35:31.887Z,87.13
2022-08-01T02:36:33.589Z,87.18
2022-08-01T02:37:31.866Z,87.43
2022-08-01T02:38:31.836Z,87.38
2022-08-01T02:39:31.853Z,87.38
2022-08-01T02:40:31.847Z,87.58
2022-08-01T02:41:31.862Z,87.58
2022-08-01T02:42:31.757Z,87.54
2022-08-01T02:43:31.788Z,87.13
2022-08-01T02:44:31.756Z,86.83
2022-08-01T02:45:31.758Z,87.34
2022-08-01T02:46:31.752Z,87.23
2022-08-01T02:47:31.706Z,87.23
2022-08-01T02:48:31.753Z,87.13
2022-08-01T02:49:31.694Z,87.13
2022-08-01T02:50:31.687Z,87.03
2022-08-01T02:51:31.650Z,86.93
2022-08-01T02:52:31.704Z,86.83
2022-08-01T02:53:41.597Z,87.03
2022-08-01T02:54:31.624Z,87.38
2022-08-01T02:55:31.619Z,87.78
2022-08-01T02:56:31.593Z,87.58
2022-08-01T02:57:51.907Z,87.88
2022-08-01T02:58:31.636Z,87.98
2022-08-01T02:59:31.566Z,88.43
2022-08-01T03:00:31.537Z,88.53
2022-08-01T03:01:31.563Z,88.43
2022-08-01T03:02:31.532Z,88.53
2022-08-01T03:03:31.497Z,88.53
2022-08-01T03:04:31.544Z,88.73
2022-08-01T03:05:31.460Z,88.83
2022-08-01T03:06:31.458Z,88.73
2022-08-01T03:07:34.399Z,88.93
2022-08-01T03:08:31.439Z,88.97
2022-08-01T03:09:31.449Z,89.07
2022-08-01T03:10:31.438Z,89.68
2022-08-01T03:11:31.424Z,89.78
2022-08-01T03:12:31.377Z,90.08
2022-08-01T03:13:31.385Z,90.43
2022-08-01T03:14:31.363Z,90.33
2022-08-01T03:15:31.329Z,90.53
2022-08-01T03:16:31.377Z,90.94
2022-08-01T03:17:31.334Z,90.94
2022-08-01T03:18:31.314Z,91.03
2022-08-01T03:19:31.272Z,91.03
2022-08-01T03:20:31.290Z,91.44
2022-08-01T03:21:31.251Z,91.49
2022-08-01T03:22:31.463Z,91.78
2022-08-01T03:23:38.288Z,91.78
2022-08-01T03:24:31.176Z,91.89
2022-08-01T03:25:31.155Z,92.19
2022-08-01T03:26:31.145Z,92.09
2022-08-01T03:27:31.115Z,92.49
2022-08-01T03:28:31.167Z,92.49
2022-08-01T03:29:31.103Z,92.29
2022-08-01T03:30:31.076Z,92.40
2022-08-01T03:31:31.079Z,92.49
2022-08-01T03:32:31.110Z,92.60
2022-08-01T03:33:31.074Z,92.60
2022-08-01T03:34:31.088Z,92.80
2022-08-01T03:35:31.007Z,92.69
2022-08-01T03:36:31.012Z,92.80
2022-08-01T03:37:30.987Z,92.60
2022-08-01T03:38:31.012Z,92.60
2022-08-01T03:39:30.945Z,92.49
2022-08-01T03:40:31.023Z,92.40
2022-08-01T03:41:30.920Z,92.29
2022-08-01T03:42:30.928Z,92.49
2022-08-01T03:43:30.898Z,92.19
2022-08-01T03:44:30.943Z,92.19
2022-08-01T03:45:30.877Z,92.19
2022-08-01T03:46:30.907Z,92.09
2022-08-01T03:47:30.842Z,92.19
2022-08-01T03:48:30.854Z,92.09
2022-08-01T03:49:30.883Z,91.89
2022-08-01T03:50:30.814Z,91.89
2022-08-01T03:51:30.797Z,91.64
2022-08-01T03:52:30.833Z,91.54
2022-08-01T03:53:30.791Z,91.03
2022-08-01T03:54:30.764Z,90.83
2022-08-01T03:55:30.759Z,90.83
2022-08-01T03:56:30.778Z,90.63
2022-08-01T03:57:36.193Z,90.49
2022-08-01T03:58:30.758Z,90.49
2022-08-01T03:59:30.685Z,90.28
2022-08-01T04:00:30.685Z,90.19
2022-08-01T04:01:30.732Z,90.08
2022-08-01T04:02:30.685Z,90.08
2022-08-01T04:03:30.628Z,90.08
2022-08-01T04:04:30.658Z,90.19
2022-08-01T04:05:30.604Z,90.19
2022-08-01T04:06:30.630Z,90.39
2022-08-01T04:07:30.577Z,90.39
2022-08-01T04:08:30.654Z,90.28
2022-08-01T04:09:30.569Z,90.28
2022-08-01T04:10:30.593Z,90.19
2022-08-01T04:11:30.534Z,90.39
2022-08-01T04:12:30.520Z,90.28
2022-08-01T04:13:37.321Z,90.28
2022-08-01T04:14:30.501Z,90.69
2022-08-01T04:15:30.504Z,90.63
2022-08-01T04:16:30.498Z,90.73
2022-08-01T04:17:30.445Z,90.94
2022-08-01T04:18:30.441Z,91.24
2022-08-01T04:19:30.419Z,91.44
2022-08-01T04:20:30.415Z,91.44
2022-08-01T04:21:30.389Z,91.54
2022-08-01T04:22:30.440Z,91.54
2022-08-01T04:23:30.365Z,91.64
2022-08-01T04:24:30.404Z,91.54
2022-08-01T04:25:30.352Z,91.64
2022-08-01T04:26:30.348Z,91.64
2022-08-01T04:27:49.991Z,91.64
2022-08-01T04:28:30.352Z,91.54
2022-08-01T04:29:30.276Z,91.94
2022-08-01T04:30:30.285Z,91.94
2022-08-01T04:31:30.259Z,92.14
2022-08-01T04:32:30.261Z,92.25
2022-08-01T04:33:30.226Z,91.94
2022-08-01T04:34:30.252Z,91.78
2022-08-01T04:36:02.018Z,91.99
2022-08-01T04:36:30.230Z,91.99
2022-08-01T04:37:30.178Z,92.05
2022-08-01T04:38:30.224Z,92.25
2022-08-01T04:39:30.143Z,92.05
2022-08-01T04:40:30.192Z,91.85
2022-08-01T04:41:30.147Z,91.74
2022-08-01T04:42:33.271Z,91.44
2022-08-01T04:43:30.108Z,91.30
2022-08-01T04:44:32.700Z,90.89
2022-08-01T04:45:30.086Z,90.65
2022-08-01T04:46:30.129Z,90.34
2022-08-01T04:47:30.057Z,90.04
2022-08-01T04:48:30.064Z,89.54
2022-08-01T04:49:30.145Z,89.29
2022-08-01T04:50:30.079Z,88.99
2022-08-01T04:51:29.990Z,88.68
2022-08-01T04:52:30.047Z,88.45
2022-08-01T04:53:29.974Z,88.14
2022-08-01T04:54:29.972Z,87.94
2022-08-01T04:55:29.989Z,87.74
2022-08-01T04:56:29.960Z,87.34
2022-08-01T04:57:29.911Z,87.09
2022-08-01T04:58:29.965Z,86.99
2022-08-01T04:59:30.010Z,86.99
2022-08-01T05:00:29.879Z,86.99
2022-08-01T05:01:29.935Z,86.75
2022-08-01T05:02:29.879Z,86.15
2022-08-01T05:03:29.835Z,85.54
2022-08-01T05:04:29.889Z,85.54
2022-08-01T05:05:29.797Z,85.74
2022-08-01T05:06:29.804Z,86.44
2022-08-01T05:07:29.807Z,86.15
2022-08-01T05:08:29.782Z,86.24
2022-08-01T05:09:31.298Z,85.60
2022-08-01T05:10:29.792Z,84.49
2022-08-01T05:11:29.735Z,84.05
2022-08-01T05:12:29.720Z,84.80
2022-08-01T05:13:29.719Z,85.10
2022-08-01T05:14:29.695Z,84.25
2022-08-01T05:15:29.677Z,83.34
2022-08-01T05:16:29.701Z,83.84
2022-08-01T05:17:29.884Z,80.71
2022-08-01T05:18:29.742Z,77.79
2022-08-01T05:19:29.634Z,75.47
2022-08-01T05:20:29.649Z,73.83
2022-08-01T05:21:29.631Z,72.39
2022-08-01T05:22:29.678Z,71.69
2022-08-01T05:23:42.172Z,74.20
2022-08-01T05:24:29.582Z,78.46
2022-08-01T05:25:57.212Z,79.91
2022-08-01T05:26:29.605Z,77.09
2022-08-01T05:27:29.547Z,75.98
2022-08-01T05:28:29.553Z,77.52
2022-08-01T05:29:28.481Z,78.46
2022-08-01T05:30:29.507Z,80.05
2022-08-01T05:31:29.464Z,80.07
2022-08-01T05:32:29.462Z,79.50
2022-08-01T05:33:29.442Z,80.85
2022-08-01T05:34:29.494Z,80.41
2022-08-01T05:35:48.247Z,80.45
2022-08-01T05:36:29.403Z,81.39
2022-08-01T05:37:29.382Z,81.90
2022-08-01T05:38:29.385Z,81.85
2022-08-01T05:39:29.362Z,79.85
2022-08-01T05:40:29.373Z,81.09
2022-08-01T05:41:29.340Z,82.24
2022-08-01T05:42:29.349Z,83.14
2022-08-01T05:43:29.459Z,83.34
2022-08-01T05:44:29.303Z,83.25
2022-08-01T05:45:29.265Z,83.28
2022-08-01T05:46:29.309Z,83.69
2022-08-01T05:47:29.269Z,83.79
2022-08-01T05:48:29.235Z,83.75
2022-08-01T05:49:29.276Z,82.94
2022-08-01T05:50:29.209Z,83.00
2022-08-01T05:51:29.178Z,79.37
2022-08-01T05:52:29.265Z,76.15
2022-08-01T05:53:29.191Z,77.19
2022-08-01T05:54:29.162Z,77.19
2022-08-01T05:55:29.126Z,77.69
2022-08-01T05:56:32.193Z,77.52
2022-08-01T05:57:29.110Z,79.00
2022-08-01T05:58:29.169Z,80.35
2022-08-01T05:59:29.076Z,80.99
2022-08-01T06:00:29.251Z,80.85
2022-08-01T06:01:29.049Z,81.29
2022-08-01T06:02:29.109Z,81.70
2022-08-01T06:03:29.070Z,81.70
2022-08-01T06:04:29.053Z,82.34
2022-08-01T06:05:28.999Z,82.44
2022-08-01T06:06:28.997Z,82.74
2022-08-01T06:07:28.972Z,83.18
2022-08-01T06:08:28.986Z,83.28
2022-08-01T06:09:28.970Z,83.28
2022-08-01T06:10:28.984Z,81.65
2022-08-01T06:11:28.917Z,78.33
2022-08-01T06:12:32.473Z,75.95
2022-08-01T06:13:28.897Z,75.88
2022-08-01T06:14:28.894Z,77.79
2022-08-01T06:15:28.876Z,77.28
2022-08-01T06:16:28.904Z,74.57
2022-08-01T06:17:28.834Z,73.00
2022-08-01T06:18:28.840Z,71.46
2022-08-01T06:19:28.816Z,72.39
2022-08-01T06:20:28.816Z,73.57
2022-08-01T06:21:28.783Z,73.43
2022-08-01T06:22:28.818Z,73.97
2022-08-01T06:23:32.587Z,74.40
2022-08-01T06:24:28.774Z,75.45
2022-08-01T06:25:28.746Z,76.38
2022-08-01T06:26:28.729Z,76.82
2022-08-01T06:27:28.717Z,77.86
2022-08-01T06:28:28.735Z,77.86
2022-08-01T06:29:28.684Z,77.83
2022-08-01T06:30:28.674Z,77.72
2022-08-01T06:31:33.414Z,77.32
2022-08-01T06:32:28.674Z,77.52
2022-08-01T06:33:28.682Z,77.92
2022-08-01T06:34:28.654Z,78.33
2022-08-01T06:35:28.640Z,78.33
2022-08-01T06:36:28.603Z,78.12
2022-08-01T06:37:28.688Z,78.03
2022-08-01T06:38:28.600Z,77.92
2022-08-01T06:39:28.712Z,78.12
2022-08-01T06:40:28.619Z,78.46
2022-08-01T06:41:28.511Z,78.66
2022-08-01T06:42:28.533Z,78.56
2022-08-01T06:43:28.587Z,78.77
2022-08-01T06:44:28.489Z,78.56
2022-08-01T06:45:28.585Z,78.12
2022-08-01T06:46:30.412Z,78.12
2022-08-01T06:47:28.435Z,77.92
2022-08-01T06:48:28.440Z,77.42
2022-08-01T06:49:28.547Z,77.62
2022-08-01T06:50:28.409Z,78.22
2022-08-01T06:51:28.388Z,76.58
2022-08-01T06:52:28.535Z,76.48
2022-08-01T06:53:28.410Z,76.58
2022-08-01T06:54:28.367Z,77.05
2022-08-01T06:55:28.324Z,76.54
2022-08-01T06:56:28.332Z,76.95
2022-08-01T06:57:28.293Z,76.11
2022-08-01T06:58:30.764Z,74.47
2022-08-01T06:59:28.306Z,73.33
2022-08-01T07:00:28.354Z,72.46
2022-08-01T07:01:28.306Z,72.43
2022-08-01T07:02:28.258Z,73.00
2022-08-01T07:03:52.216Z,72.60
2022-08-01T07:04:28.280Z,72.19
2022-08-01T07:05:28.205Z,70.96
2022-08-01T07:06:28.181Z,71.69
2022-08-01T07:07:28.201Z,71.76
2022-08-01T07:08:28.170Z,70.92
2022-08-01T07:09:28.194Z,70.19
2022-08-01T07:10:28.223Z,69.99
2022-08-01T07:11:28.170Z,70.03
2022-08-01T07:12:28.116Z,70.43
2022-08-01T07:13:36.807Z,69.59
2022-08-01T07:14:28.088Z,69.59
2022-08-01T07:15:28.070Z,68.46
2022-08-01T07:16:28.096Z,68.26
2022-08-01T07:17:28.049Z,68.46
2022-08-01T07:18:28.025Z,67.43
2022-08-01T07:19:28.051Z,67.03
2022-08-01T07:20:28.008Z,67.33
2022-08-01T07:21:40.630Z,66.73
2022-08-01T07:22:28.012Z,65.90
2022-08-01T07:23:33.046Z,66.17
2022-08-01T07:24:28.817Z,64.54
2022-08-01T07:25:27.953Z,63.51
2022-08-01T07:26:27.919Z,63.08
2022-08-01T07:27:27.933Z,61.85
2022-08-01T07:28:27.954Z,61.93
2022-08-01T07:29:27.896Z,61.43
2022-08-01T07:30:27.865Z,61.85
2022-08-01T07:31:31.999Z,61.96
2022-08-01T07:32:27.854Z,62.59
2022-08-01T07:33:27.845Z,64.27
2022-08-01T07:34:27.850Z,66.13
2022-08-01T07:35:27.837Z,67.16
2022-08-01T07:36:27.789Z,66.66
2022-08-01T07:37:47.699Z,66.96
2022-08-01T07:38:27.762Z,67.40
2022-08-01T07:39:27.762Z,67.99
2022-08-01T07:40:27.761Z,68.09
2022-08-01T07:41:53.029Z,67.49
2022-08-01T07:42:27.716Z,67.49
2022-08-01T07:43:27.748Z,67.59
2022-08-01T07:44:28.219Z,67.09
2022-08-01T07:45:27.682Z,65.83
2022-08-01T07:46:27.690Z,66.43
2022-08-01T07:47:27.677Z,65.66
2022-08-01T07:48:27.629Z,65.93
2022-08-01T07:49:27.690Z,65.20
2022-08-01T07:50:27.625Z,65.53
2022-08-01T07:51:27.600Z,65.56
2022-08-01T07:52:27.618Z,65.76
2022-08-01T07:53:27.599Z,65.86
2022-08-01T07:54:33.946Z,66.56
2022-08-01T07:55:27.555Z,66.86
2022-08-01T07:56:27.526Z,67.09
2022-08-01T07:57:27.533Z,67.72
2022-08-01T07:58:27.533Z,67.72
2022-08-01T07:59:27.490Z,67.93
2022-08-01T08:00:27.483Z,68.13
2022-08-01T08:01:27.544Z,68.09
2022-08-01T08:02:27.560Z,67.69
2022-08-01T08:03:27.447Z,67.56
2022-08-01T08:04:27.498Z,67.46
2022-08-01T08:05:58.926Z,66.73
2022-08-01T08:06:27.398Z,66.33
2022-08-01T08:07:27.399Z,65.70
2022-08-01T08:08:27.406Z,65.73
2022-08-01T08:09:27.359Z,66.63
2022-08-01T08:10:27.372Z,66.43
2022-08-01T08:11:27.357Z,66.23
2022-08-01T08:12:28.705Z,66.13
2022-08-01T08:13:27.313Z,66.76
2022-08-01T08:14:32.517Z,66.36
2022-08-01T08:15:27.292Z,66.89
2022-08-01T08:16:27.331Z,67.19
2022-08-01T08:17:27.260Z,67.52
2022-08-01T08:18:27.228Z,68.02
2022-08-01T08:19:38.520Z,68.32
2022-08-01T08:20:27.217Z,68.46
2022-08-01T08:21:27.262Z,68.96
2022-08-01T08:22:27.233Z,69.36
2022-08-01T08:23:41.503Z,69.16
2022-08-01T08:24:27.391Z,69.69
2022-08-01T08:25:27.160Z,69.09
2022-08-01T08:26:27.123Z,69.19
2022-08-01T08:27:27.150Z,69.49
2022-08-01T08:28:28.306Z,69.69
2022-08-01T08:29:27.156Z,69.89
2022-08-01T08:30:27.078Z,69.69
2022-08-01T08:31:52.066Z,69.49
2022-08-01T08:32:27.059Z,69.79
2022-08-01T08:33:27.049Z,69.79
2022-08-01T08:34:27.057Z,69.39
2022-08-01T08:35:40.487Z,68.86
2022-08-01T08:36:31.341Z,68.26
2022-08-01T08:37:26.992Z,68.96
2022-08-01T08:38:29.760Z,68.86
2022-08-01T08:39:26.983Z,68.66
2022-08-01T08:40:26.969Z,69.26
2022-08-01T08:41:26.939Z,68.96
2022-08-01T08:42:26.944Z,68.26
2022-08-01T08:43:26.946Z,68.13
2022-08-01T08:44:26.916Z,67.52
2022-08-01T08:45:30.897Z,67.82
2022-08-01T08:46:27.974Z,67.63
2022-08-01T08:47:26.899Z,68.05
2022-08-01T08:48:27.747Z,68.13
2022-08-01T08:49:26.928Z,67.63
2022-08-01T08:50:26.825Z,67.22
2022-08-01T08:51:26.827Z,67.40
2022-08-01T08:52:26.817Z,67.09
2022-08-01T08:53:26.874Z,66.86
2022-08-01T08:54:28.905Z,66.06
2022-08-01T08:55:26.769Z,66.36
2022-08-01T08:56:28.325Z,66.19
2022-08-01T08:57:26.779Z,67.09
2022-08-01T08:58:30.484Z,67.22
2022-08-01T08:59:26.708Z,67.32
2022-08-01T09:00:26.676Z,67.72
2022-08-01T09:01:26.671Z,67.93
2022-08-01T09:02:26.669Z,67.63
2022-08-01T09:03:26.673Z,67.32
2022-08-01T09:04:26.894Z,67.02
2022-08-01T09:05:26.623Z,67.29
2022-08-01T09:06:26.602Z,67.55
2022-08-01T09:07:26.596Z,68.05
2022-08-01T09:08:26.570Z,67.63
2022-08-01T09:09:26.567Z,66.69
2022-08-01T09:10:26.591Z,66.39
2022-08-01T09:11:26.563Z,66.29
2022-08-01T09:12:26.524Z,65.86
2022-08-01T09:13:26.521Z,65.79
2022-08-01T09:14:26.494Z,66.09
2022-08-01T09:15:26.493Z,66.39
2022-08-01T09:16:26.547Z,66.39
2022-08-01T09:17:26.488Z,66.19
2022-08-01T09:18:26.447Z,65.86
2022-08-01T09:19:40.155Z,65.79
2022-08-01T09:20:26.466Z,66.19
2022-08-01T09:21:26.428Z,66.39
2022-08-01T09:22:26.426Z,66.39
2022-08-01T09:23:26.392Z,67.02
2022-08-01T09:24:30.360Z,67.29
2022-08-01T09:25:29.784Z,66.59
2022-08-01T09:26:26.335Z,65.76
2022-08-01T09:27:26.373Z,65.26
2022-08-01T09:28:26.318Z,65.33
2022-08-01T09:29:37.376Z,63.97
2022-08-01T09:30:26.328Z,63.67
2022-08-01T09:31:26.289Z,62.77
2022-08-01T09:32:26.303Z,62.45
2022-08-01T09:33:26.286Z,61.91
2022-08-01T09:34:26.251Z,60.79
2022-08-01T09:35:30.080Z,60.56
2022-08-01T09:36:26.211Z,58.78
2022-08-01T09:37:26.211Z,58.41
2022-08-01T09:38:26.237Z,59.66
2022-08-01T09:39:26.184Z,60.46
2022-08-01T09:40:26.155Z,59.56
2022-08-01T09:41:26.158Z,59.47
2022-08-01T09:42:28.703Z,59.44
2022-08-01T09:43:26.201Z,59.53
2022-08-01T09:44:31.403Z,59.47
2022-08-01T09:45:26.103Z,60.46
2022-08-01T09:46:26.084Z,59.53
2022-08-01T09:47:26.084Z,59.14
2022-08-01T09:48:28.075Z,59.04
2022-08-01T09:49:26.117Z,58.94
2022-08-01T09:50:26.027Z,58.74
2022-08-01T09:51:59.959Z,59.14
2022-08-01T09:52:28.911Z,59.17
2022-08-01T09:53:30.743Z,60.42
2022-08-01T09:54:26.010Z,61.55
2022-08-01T09:55:25.966Z,62.34
2022-08-01T09:56:25.962Z,62.87
2022-08-01T09:57:25.948Z,63.50
2022-08-01T09:58:25.920Z,63.43
2022-08-01T09:59:36.143Z,63.33
2022-08-01T10:00:44.265Z,63.40
2022-08-01T10:01:25.907Z,62.87
2022-08-01T10:02:25.866Z,62.27
2022-08-01T10:03:25.958Z,61.98
2022-08-01T10:04:25.836Z,61.55
2022-08-01T10:05:25.866Z,62.37
2022-08-01T10:06:25.820Z,61.55
2022-08-01T10:07:27.897Z,61.11
2022-08-01T10:08:25.787Z,60.39
2022-08-01T10:09:25.784Z,60.19
2022-08-01T10:10:29.001Z,59.77
2022-08-01T10:11:35.766Z,59.49
2022-08-01T10:12:25.748Z,59.69
2022-08-01T10:13:25.759Z,59.69
2022-08-01T10:14:25.711Z,59.59
2022-08-01T10:15:36.929Z,59.66
2022-08-01T10:16:25.706Z,60.09
2022-08-01T10:17:25.723Z,59.99
2022-08-01T10:18:26.228Z,60.26
2022-08-01T10:19:25.659Z,59.36
2022-08-01T10:20:29.877Z,58.84
2022-08-01T10:21:47.668Z,57.94
2022-08-01T10:22:25.610Z,58.37
2022-08-01T10:23:40.436Z,59.59
2022-08-01T10:24:25.587Z,59.89
2022-08-01T10:25:42.379Z,61.05
2022-08-01T10:26:25.594Z,62.15
2022-08-01T10:27:38.398Z,61.77
2022-08-01T10:28:25.534Z,61.85
2022-08-01T10:29:59.079Z,61.11
2022-08-01T10:30:25.992Z,61.09
2022-08-01T10:31:30.938Z,60.19
2022-08-01T10:32:26.099Z,59.39
2022-08-01T10:33:50.899Z,59.17
2022-08-01T10:34:25.455Z,59.27
2022-08-01T10:35:46.501Z,59.44
2022-08-01T10:36:26.037Z,58.11
2022-08-01T10:37:26.875Z,57.82
2022-08-01T10:38:25.387Z,57.19
2022-08-01T10:39:25.388Z,56.99
2022-08-01T10:40:32.569Z,57.39
2022-08-01T10:41:25.373Z,57.52
2022-08-01T10:42:25.340Z,57.09
2022-08-01T10:43:25.374Z,57.32
2022-08-01T10:44:25.320Z,58.31
2022-08-01T10:45:25.313Z,57.09
2022-08-01T10:46:25.306Z,56.99
2022-08-01T10:47:27.084Z,56.99
2022-08-01T10:48:25.302Z,57.62
2022-08-01T10:49:25.301Z,57.29
2022-08-01T10:50:26.136Z,56.70
2022-08-01T10:51:26.930Z,56.57
2022-08-01T10:52:25.215Z,56.14
2022-08-01T10:53:31.761Z,55.55
2022-08-01T10:54:25.788Z,55.97
2022-08-01T10:55:25.184Z,55.77
2022-08-01T10:56:27.226Z,55.67
2022-08-01T10:57:27.592Z,55.27
2022-08-01T10:58:25.201Z,55.80
2022-08-01T10:59:49.474Z,56.20
2022-08-01T11:00:25.383Z,55.57
2022-08-01T11:01:25.832Z,54.08
2022-08-01T11:02:25.078Z,53.70
2022-08-01T11:03:47.538Z,54.00
2022-08-01T11:04:25.164Z,54.43
2022-08-01T11:05:25.051Z,53.70
2022-08-01T11:06:25.033Z,54.23
2022-08-01T11:07:25.881Z,54.21
2022-08-01T11:08:24.997Z,54.77
2022-08-01T11:09:24.998Z,53.61
2022-08-01T11:10:25.014Z,53.51
2022-08-01T11:11:24.986Z,54.03
2022-08-01T11:12:25.292Z,54.13
2022-08-01T11:13:24.949Z,54.23
2022-08-01T11:14:26.531Z,54.13
2022-08-01T11:15:30.133Z,53.44
2022-08-01T11:16:24.928Z,53.80
2022-08-01T11:17:24.891Z,54.17
2022-08-01T11:18:27.474Z,53.56
2022-08-01T11:19:24.890Z,51.32
2022-08-01T11:20:24.849Z,51.65
2022-08-01T11:21:58.062Z,52.17
2022-08-01T11:22:25.512Z,52.79
2022-08-01T11:23:24.843Z,53.08
2022-08-01T11:24:24.806Z,52.91
2022-08-01T11:26:05.678Z,54.48
2022-08-01T11:26:28.873Z,54.68
2022-08-01T11:27:24.762Z,55.08
2022-08-01T11:28:30.165Z,56.10
2022-08-01T11:29:24.737Z,56.02
2022-08-01T11:30:24.728Z,56.30
2022-08-01T11:31:24.714Z,55.27
2022-08-01T11:32:24.752Z,54.75
2022-08-01T11:33:24.684Z,54.10
2022-08-01T11:34:24.694Z,52.96
2022-08-01T11:35:24.663Z,52.09
2022-08-01T11:36:55.796Z,52.89
2022-08-01T11:37:24.673Z,53.70
2022-08-01T11:38:24.649Z,53.51
2022-08-01T11:39:24.604Z,53.51
2022-08-01T11:40:24.808Z,54.00
2022-08-01T11:41:38.169Z,53.73
2022-08-01T11:42:24.585Z,54.63
2022-08-01T11:43:24.593Z,54.43
2022-08-01T11:44:24.807Z,54.55
2022-08-01T11:45:24.543Z,55.08
2022-08-01T11:46:24.518Z,55.35
2022-08-01T11:47:24.503Z,54.97
2022-08-01T11:48:27.639Z,54.46
2022-08-01T11:49:24.669Z,54.65
2022-08-01T11:50:24.474Z,56.02
2022-08-01T11:51:25.832Z,56.49
2022-08-01T11:52:24.440Z,55.50
2022-08-01T11:53:24.423Z,56.10
2022-08-01T11:54:35.236Z,55.35
2022-08-01T11:55:24.396Z,54.75
2022-08-01T11:56:24.399Z,55.18
2022-08-01T11:57:24.362Z,55.50
2022-08-01T11:58:29.435Z,56.62
2022-08-01T11:59:24.425Z,56.55
2022-08-01T12:00:24.417Z,57.17
2022-08-01T12:01:24.320Z,57.05
2022-08-01T12:02:30.470Z,57.24
2022-08-01T12:03:33.736Z,57.24
2022-08-01T12:04:24.338Z,56.72
2022-08-01T12:05:24.685Z,56.42
2022-08-01T12:06:24.284Z,56.95
2022-08-01T12:07:24.259Z,57.35
2022-08-01T12:08:24.243Z,56.95
2022-08-01T12:09:24.225Z,57.35
2022-08-01T12:10:24.238Z,56.72
2022-08-01T12:11:24.198Z,55.97
2022-08-01T12:12:24.223Z,54.50
2022-08-01T12:13:24.159Z,53.23
2022-08-01T12:14:24.157Z,51.20
2022-08-01T12:15:24.196Z,50.06
2022-08-01T12:16:24.137Z,52.19
2022-08-01T12:17:24.167Z,52.61
2022-08-01T12:18:24.101Z,53.01
2022-08-01T12:19:24.089Z,53.23
2022-08-01T12:20:24.074Z,54.23
2022-08-01T12:21:24.114Z,54.25
2022-08-01T12:22:24.055Z,54.48
2022-08-01T12:23:24.032Z,54.01
2022-08-01T12:24:24.058Z,54.41
2022-08-01T12:25:24.004Z,54.41
2022-08-01T12:26:28.610Z,54.80
2022-08-01T12:27:23.991Z,54.60
2022-08-01T12:28:23.997Z,54.68
2022-08-01T12:29:23.981Z,54.58
2022-08-01T12:30:23.969Z,55.00
2022-08-01T12:31:23.957Z,55.40
2022-08-01T12:32:27.994Z,55.43
2022-08-01T12:33:23.916Z,56.35
2022-08-01T12:34:23.953Z,56.95
2022-08-01T12:35:23.939Z,57.45
2022-08-01T12:36:23.923Z,56.12
2022-08-01T12:37:23.886Z,55.70
2022-08-01T12:38:23.854Z,55.30
2022-08-01T12:39:23.821Z,55.60
2022-08-01T12:40:23.826Z,56.82
2022-08-01T12:41:23.801Z,56.23
2022-08-01T12:42:23.795Z,56.40
2022-08-01T12:43:28.017Z,56.42
2022-08-01T12:44:23.822Z,57.35
2022-08-01T12:45:23.754Z,57.24
2022-08-01T12:46:23.773Z,57.67
2022-08-01T12:47:23.728Z,57.47
2022-08-01T12:48:23.771Z,57.87
2022-08-01T12:49:23.769Z,57.75
2022-08-01T12:50:23.703Z,57.75
2022-08-01T12:51:23.674Z,57.02
2022-08-01T12:52:26.786Z,57.22
2022-08-01T12:53:23.629Z,56.40